sensor_id;sensor_type;location;lat;lon;timestamp;P1;P2;P0
82817;PMS5003;72572;46.824;-71.222;2023-11-19T00:01:40;6.52;5.76;4.24
82817;PMS5003;72572;46.824;-71.222;2023-11-19T00:04:04;6.48;6.48;4.9
82817;PMS5003;72572;46.824;-71.222;2023-11-19T00:06:28;6.33;5.43;4.24
82817;PMS5003;72572;46.824;-71.222;2023-11-19T00:08:57;5.18;5.18;4
82817;PMS5003;72572;46.824;-71.222;2023-11-19T00:11:22;8.48;6.33;4.29
82817;PMS5003;72572;46.824;-71.222;2023-11-19T00:13:45;8.71;8.71;5.57
82817;PMS5003;72572;46.824;-71.222;2023-11-19T00:16:12;6.14;5.24;4
82817;PMS5003;72572;46.824;-71.222;2023-11-19T00:18:36;7.67;6.62;4
82817;PMS5003;72572;46.824;-71.222;2023-11-19T00:21:03;5.86;5.86;3.81
82817;PMS5003;72572;46.824;-71.222;2023-11-19T00:23:27;8.52;7.9;5.71
82817;PMS5003;72572;46.824;-71.222;2023-11-19T00:25:54;6.23;5.41;4
82817;PMS5003;72572;46.824;-71.222;2023-11-19T00:28:18;5.29;5.29;3.24
82817;PMS5003;72572;46.824;-71.222;2023-11-19T00:30:44;4.52;4.52;3.81
82817;PMS5003;72572;46.824;-71.222;2023-11-19T00:33:10;4.71;4.71;3.14
82817;PMS5003;72572;46.824;-71.222;2023-11-19T00:35:33;4.38;4.38;2.19
82817;PMS5003;72572;46.824;-71.222;2023-11-19T00:38:00;4.67;4.1;3.33
82817;PMS5003;72572;46.824;-71.222;2023-11-19T00:40:26;2.76;2.76;2
82817;PMS5003;72572;46.824;-71.222;2023-11-19T00:42:50;2.73;2.73;2
82817;PMS5003;72572;46.824;-71.222;2023-11-19T00:45:16;3.9;3.81;1
82817;PMS5003;72572;46.824;-71.222;2023-11-19T00:47:43;3.18;2;1.36
82817;PMS5003;72572;46.824;-71.222;2023-11-19T00:50:07;2;1.52;1
82817;PMS5003;72572;46.824;-71.222;2023-11-19T00:52:32;2;1.1;0.95
82817;PMS5003;72572;46.824;-71.222;2023-11-19T00:54:59;1.95;1.95;0.67
82817;PMS5003;72572;46.824;-71.222;2023-11-19T00:57:22;1;1;0.05
82817;PMS5003;72572;46.824;-71.222;2023-11-19T00:59:49;3.36;3.36;1
82817;PMS5003;72572;46.824;-71.222;2023-11-19T01:02:15;2.24;1.76;1.24
82817;PMS5003;72572;46.824;-71.222;2023-11-19T01:04:40;3.9;3.33;1
82817;PMS5003;72572;46.824;-71.222;2023-11-19T01:07:04;2;2;1.14
82817;PMS5003;72572;46.824;-71.222;2023-11-19T01:09:30;4.14;2.67;1.1
82817;PMS5003;72572;46.824;-71.222;2023-11-19T01:11:55;1.95;1.95;1
82817;PMS5003;72572;46.824;-71.222;2023-11-19T01:14:21;1.86;1.05;1
82817;PMS5003;72572;46.824;-71.222;2023-11-19T01:16:46;1.64;1.27;0.36
82817;PMS5003;72572;46.824;-71.222;2023-11-19T01:19:12;1.62;1.24;1
82817;PMS5003;72572;46.824;-71.222;2023-11-19T01:21:38;2.19;2.19;1
82817;PMS5003;72572;46.824;-71.222;2023-11-19T01:24:01;4.76;4.76;2.57
82817;PMS5003;72572;46.824;-71.222;2023-11-19T01:26:27;2.48;1.76;1.24
82817;PMS5003;72572;46.824;-71.222;2023-11-19T01:28:54;2.38;2.38;1
82817;PMS5003;72572;46.824;-71.222;2023-11-19T01:31:18;2;2;1
82817;PMS5003;72572;46.824;-71.222;2023-11-19T01:33:44;2;2;1.36
82817;PMS5003;72572;46.824;-71.222;2023-11-19T01:36:09;2;1.9;1
82817;PMS5003;72572;46.824;-71.222;2023-11-19T01:38:34;2.48;1.62;1
82817;PMS5003;72572;46.824;-71.222;2023-11-19T01:41:00;2.76;1.62;1
82817;PMS5003;72572;46.824;-71.222;2023-11-19T01:43:33;2;1;1
82817;PMS5003;72572;46.824;-71.222;2023-11-19T01:45:50;2.1;2.1;1.1
82817;PMS5003;72572;46.824;-71.222;2023-11-19T01:48:15;3.52;3.52;1.24
82817;PMS5003;72572;46.824;-71.222;2023-11-19T01:50:43;4;2;1
82817;PMS5003;72572;46.824;-71.222;2023-11-19T01:53:07;4.76;4;1.76
82817;PMS5003;72572;46.824;-71.222;2023-11-19T01:55:31;4.38;4.38;2.76
82817;PMS5003;72572;46.824;-71.222;2023-11-19T01:57:58;4.67;4;2
82817;PMS5003;72572;46.824;-71.222;2023-11-19T02:00:23;3.52;3.52;1.62
82817;PMS5003;72572;46.824;-71.222;2023-11-19T02:02:49;5.24;5.1;2
82817;PMS5003;72572;46.824;-71.222;2023-11-19T02:05:14;5.67;5;2
82817;PMS5003;72572;46.824;-71.222;2023-11-19T02:07:40;6.45;3.18;1.73
82817;PMS5003;72572;46.824;-71.222;2023-11-19T02:10:06;3.62;1.81;1.24
82817;PMS5003;72572;46.824;-71.222;2023-11-19T02:12:31;3.14;2.19;1.52
82817;PMS5003;72572;46.824;-71.222;2023-11-19T02:14:55;8.38;7.19;4.05
82817;PMS5003;72572;46.824;-71.222;2023-11-19T02:17:26;10.86;10.71;7.9
82817;PMS5003;72572;46.824;-71.222;2023-11-19T02:19:44;11;10.43;7.67
82817;PMS5003;72572;46.824;-71.222;2023-11-19T02:22:10;9.38;8.95;7.48
82817;PMS5003;72572;46.824;-71.222;2023-11-19T02:24:37;8.36;7.95;5.14
82817;PMS5003;72572;46.824;-71.222;2023-11-19T02:27:04;4.76;4.76;3.24
82817;PMS5003;72572;46.824;-71.222;2023-11-19T02:29:25;5.38;5.19;3.05
82817;PMS5003;72572;46.824;-71.222;2023-11-19T02:31:53;5.76;5.48;4
82817;PMS5003;72572;46.824;-71.222;2023-11-19T02:34:18;7.52;6.62;3.62
82817;PMS5003;72572;46.824;-71.222;2023-11-19T02:36:43;5;4.24;2.48
82817;PMS5003;72572;46.824;-71.222;2023-11-19T02:39:09;5;4.1;2
82817;PMS5003;72572;46.824;-71.222;2023-11-19T02:41:34;7.86;6.73;4
82817;PMS5003;72572;46.824;-71.222;2023-11-19T02:44:00;8.33;8.33;5.76
82817;PMS5003;72572;46.824;-71.222;2023-11-19T02:46:25;8.43;8.1;6.05
82817;PMS5003;72572;46.824;-71.222;2023-11-19T02:48:49;4.67;4.67;4
82817;PMS5003;72572;46.824;-71.222;2023-11-19T02:51:15;11.48;7.05;3.52
82817;PMS5003;72572;46.824;-71.222;2023-11-19T02:53:39;2.48;2.48;1
82817;PMS5003;72572;46.824;-71.222;2023-11-19T02:56:07;4.43;2.48;1
82817;PMS5003;72572;46.824;-71.222;2023-11-19T02:58:31;4.82;4.18;1.68
82817;PMS5003;72572;46.824;-71.222;2023-11-19T03:00:57;3.81;3.24;1.9
82817;PMS5003;72572;46.824;-71.222;2023-11-19T03:03:23;7.52;5.38;3.52
82817;PMS5003;72572;46.824;-71.222;2023-11-19T03:05:48;7.1;7.1;3.62
82817;PMS5003;72572;46.824;-71.222;2023-11-19T03:08:12;6.33;6.33;4
82817;PMS5003;72572;46.824;-71.222;2023-11-19T03:10:36;5.19;5;4
82817;PMS5003;72572;46.824;-71.222;2023-11-19T03:13:02;10.62;8.43;4.9
82817;PMS5003;72572;46.824;-71.222;2023-11-19T03:15:29;8;7.23;4.77
82817;PMS5003;72572;46.824;-71.222;2023-11-19T03:17:52;12.86;10.9;6.33
82817;PMS5003;72572;46.824;-71.222;2023-11-19T03:20:19;7.9;7.9;4.67
82817;PMS5003;72572;46.824;-71.222;2023-11-19T03:22:44;5.1;5.1;4.1
82817;PMS5003;72572;46.824;-71.222;2023-11-19T03:25:10;7.76;6.9;4.1
82817;PMS5003;72572;46.824;-71.222;2023-11-19T03:27:34;7.24;7.24;4.67
82817;PMS5003;72572;46.824;-71.222;2023-11-19T03:30:01;6.9;6.9;4.76
82817;PMS5003;72572;46.824;-71.222;2023-11-19T03:32:27;8.68;8;5.09
82817;PMS5003;72572;46.824;-71.222;2023-11-19T03:34:51;7.95;7.95;5.67
82817;PMS5003;72572;46.824;-71.222;2023-11-19T03:37:15;9.43;9.24;5.76
82817;PMS5003;72572;46.824;-71.222;2023-11-19T03:39:43;8.48;8;5
82817;PMS5003;72572;46.824;-71.222;2023-11-19T03:42:05;7.48;6.71;4.86
82817;PMS5003;72572;46.824;-71.222;2023-11-19T03:44:32;7.52;7.52;4.52
82817;PMS5003;72572;46.824;-71.222;2023-11-19T03:46:57;9.09;7.14;4
82817;PMS5003;72572;46.824;-71.222;2023-11-19T03:49:24;6.64;6.64;4.27
82817;PMS5003;72572;46.824;-71.222;2023-11-19T03:51:50;10.48;8.48;5.48
82817;PMS5003;72572;46.824;-71.222;2023-11-19T03:54:13;9.48;8.81;5.48
82817;PMS5003;72572;46.824;-71.222;2023-11-19T03:56:39;7.52;7.52;5.48
82817;PMS5003;72572;46.824;-71.222;2023-11-19T03:59:06;9.1;8.81;5
82817;PMS5003;72572;46.824;-71.222;2023-11-19T04:01:30;6.33;6.33;4.62
82817;PMS5003;72572;46.824;-71.222;2023-11-19T04:03:55;13.62;6.86;3.81
82817;PMS5003;72572;46.824;-71.222;2023-11-19T04:06:22;6.95;6;3.64
82817;PMS5003;72572;46.824;-71.222;2023-11-19T04:08:48;6.9;6.9;4
82817;PMS5003;72572;46.824;-71.222;2023-11-19T04:11:12;6.57;5.57;3.38
82817;PMS5003;72572;46.824;-71.222;2023-11-19T04:13:36;5;5;2.14
82817;PMS5003;72572;46.824;-71.222;2023-11-19T04:16:04;5.86;5.29;2.19
82817;PMS5003;72572;46.824;-71.222;2023-11-19T04:18:27;7.67;7.67;4.52
82817;PMS5003;72572;46.824;-71.222;2023-11-19T04:20:52;8.48;7.33;5
82817;PMS5003;72572;46.824;-71.222;2023-11-19T04:23:18;10.68;8.64;4.32
82817;PMS5003;72572;46.824;-71.222;2023-11-19T04:25:44;8.14;8.14;4.52
82817;PMS5003;72572;46.824;-71.222;2023-11-19T04:28:09;11.67;10.67;6.33
82817;PMS5003;72572;46.824;-71.222;2023-11-19T04:30:33;10.9;8.1;6.05
82817;PMS5003;72572;46.824;-71.222;2023-11-19T04:33:01;9.29;8.1;6.62
82817;PMS5003;72572;46.824;-71.222;2023-11-19T04:35:24;11.57;10.81;8
82817;PMS5003;72572;46.824;-71.222;2023-11-19T04:37:49;10.76;10;5
82817;PMS5003;72572;46.824;-71.222;2023-11-19T04:40:15;7.73;5.73;3.91
82817;PMS5003;72572;46.824;-71.222;2023-11-19T04:42:40;4.9;4.9;3.24
82817;PMS5003;72572;46.824;-71.222;2023-11-19T04:45:06;7.86;7.86;4.24
82817;PMS5003;72572;46.824;-71.222;2023-11-19T04:47:32;6.71;5.43;4
82817;PMS5003;72572;46.824;-71.222;2023-11-19T04:49:56;10.24;9.24;5
82817;PMS5003;72572;46.824;-71.222;2023-11-19T04:52:23;10.05;7.9;5
82817;PMS5003;72572;46.824;-71.222;2023-11-19T04:54:46;8.52;6.57;3.86
82817;PMS5003;72572;46.824;-71.222;2023-11-19T04:57:15;8.73;8.14;4.14
82817;PMS5003;72572;46.824;-71.222;2023-11-19T04:59:37;10.67;8.29;4.52
82817;PMS5003;72572;46.824;-71.222;2023-11-19T05:02:03;10.1;9.86;5.71
82817;PMS5003;72572;46.824;-71.222;2023-11-19T05:04:29;9.65;7.8;5.15
82817;PMS5003;72572;46.824;-71.222;2023-11-19T05:06:55;9.62;8.52;5.48
82817;PMS5003;72572;46.824;-71.222;2023-11-19T05:09:18;8.71;7.76;5
82817;PMS5003;72572;46.824;-71.222;2023-11-19T05:11:45;11;10.14;5.19
82817;PMS5003;72572;46.824;-71.222;2023-11-19T05:14:10;11.95;9.24;5.52
82817;PMS5003;72572;46.824;-71.222;2023-11-19T05:16:35;12.9;8.9;6.4
82817;PMS5003;72572;46.824;-71.222;2023-11-19T05:19:02;8.2;8.2;5.5
82817;PMS5003;72572;46.824;-71.222;2023-11-19T05:21:25;10.4;8.3;5.05
82817;PMS5003;72572;46.824;-71.222;2023-11-19T05:23:52;7.24;7.24;4
82817;PMS5003;72572;46.824;-71.222;2023-11-19T05:26:17;9.9;9.6;4.7
82817;PMS5003;72572;46.824;-71.222;2023-11-19T05:28:43;10.33;9.9;6
82817;PMS5003;72572;46.824;-71.222;2023-11-19T05:31:08;11.86;10.14;5.55
82817;PMS5003;72572;46.824;-71.222;2023-11-19T05:33:34;7.86;7.86;4.62
82817;PMS5003;72572;46.824;-71.222;2023-11-19T05:36:00;6.95;5.67;4.24
82817;PMS5003;72572;46.824;-71.222;2023-11-19T05:38:24;10.38;9.05;4.52
82817;PMS5003;72572;46.824;-71.222;2023-11-19T05:40:48;8.38;7.9;5
82817;PMS5003;72572;46.824;-71.222;2023-11-19T05:43:14;11.71;8.48;5
82817;PMS5003;72572;46.824;-71.222;2023-11-19T05:45:38;9.81;8.71;5
82817;PMS5003;72572;46.824;-71.222;2023-11-19T05:48:05;8.77;8.5;4.82
82817;PMS5003;72572;46.824;-71.222;2023-11-19T05:50:30;8.67;8.67;6.19
82817;PMS5003;72572;46.824;-71.222;2023-11-19T05:52:55;8.67;8.67;5.19
82817;PMS5003;72572;46.824;-71.222;2023-11-19T05:55:20;12.71;9.57;6.43
82817;PMS5003;72572;46.824;-71.222;2023-11-19T05:57:47;12.5;10.25;6.4
82817;PMS5003;72572;46.824;-71.222;2023-11-19T06:00:10;9.9;9.9;5.5
82817;PMS5003;72572;46.824;-71.222;2023-11-19T06:02:47;11.05;8.95;4.95
82817;PMS5003;72572;46.824;-71.222;2023-11-19T06:05:12;10.73;10;7.32
82817;PMS5003;72572;46.824;-71.222;2023-11-19T06:07:38;8.95;7.76;4.76
82817;PMS5003;72572;46.824;-71.222;2023-11-19T06:10:02;8;7.05;4.45
82817;PMS5003;72572;46.824;-71.222;2023-11-19T06:12:28;10.05;7.9;5
82817;PMS5003;72572;46.824;-71.222;2023-11-19T06:14:53;8.48;7.67;4.38
82817;PMS5003;72572;46.824;-71.222;2023-11-19T06:17:19;10.1;9.24;4.81
82817;PMS5003;72572;46.824;-71.222;2023-11-19T06:19:45;9.05;8.09;4.41
82817;PMS5003;72572;46.824;-71.222;2023-11-19T06:22:11;8.05;6.14;4.52
82817;PMS5003;72572;46.824;-71.222;2023-11-19T06:24:35;7.5;6.35;2.3
82817;PMS5003;72572;46.824;-71.222;2023-11-19T06:27:01;8.38;7.19;4.48
82817;PMS5003;72572;46.824;-71.222;2023-11-19T06:29:26;10.52;7.9;4.38
82817;PMS5003;72572;46.824;-71.222;2023-11-19T06:31:50;12.48;10.62;5.76
82817;PMS5003;72572;46.824;-71.222;2023-11-19T06:34:16;10.76;9.43;5
82817;PMS5003;72572;46.824;-71.222;2023-11-19T06:36:43;9.45;9.32;4.68
82817;PMS5003;72572;46.824;-71.222;2023-11-19T06:39:06;7.35;6.6;4.1
82817;PMS5003;72572;46.824;-71.222;2023-11-19T06:41:33;10.1;8.48;6.05
82817;PMS5003;72572;46.824;-71.222;2023-11-19T06:43:58;7;7;4.76
82817;PMS5003;72572;46.824;-71.222;2023-11-19T06:46:23;7;6.57;4.38
82817;PMS5003;72572;46.824;-71.222;2023-11-19T06:48:47;10.48;7.9;5
82817;PMS5003;72572;46.824;-71.222;2023-11-19T06:51:14;9.52;8.48;5
82817;PMS5003;72572;46.824;-71.222;2023-11-19T06:53:40;12.82;9;5.18
82817;PMS5003;72572;46.824;-71.222;2023-11-19T06:56:10;12.24;10.76;5.48
82817;PMS5003;72572;46.824;-71.222;2023-11-19T06:58:31;8.14;8.14;5
82817;PMS5003;72572;46.824;-71.222;2023-11-19T07:00:57;10.85;9.15;6.05
82817;PMS5003;72572;46.824;-71.222;2023-11-19T07:03:20;10.19;9.52;6.05
82817;PMS5003;72572;46.824;-71.222;2023-11-19T07:05:45;11.95;9.09;4.55
82817;PMS5003;72572;46.824;-71.222;2023-11-19T07:08:12;10.4;9.1;5
82817;PMS5003;72572;46.824;-71.222;2023-11-19T07:10:38;8.23;8.14;5.36
82817;PMS5003;72572;46.824;-71.222;2023-11-19T07:13:02;9.95;8.86;6.62
82817;PMS5003;72572;46.824;-71.222;2023-11-19T07:15:29;8.19;7.33;5
82817;PMS5003;72572;46.824;-71.222;2023-11-19T07:17:54;10.14;9.24;4
82817;PMS5003;72572;46.824;-71.222;2023-11-19T07:20:18;4.9;4.48;2.19
82817;PMS5003;72572;46.824;-71.222;2023-11-19T07:22:44;6.71;5.95;3.9
82817;PMS5003;72572;46.824;-71.222;2023-11-19T07:25:08;5.57;4.24;2.76
82817;PMS5003;72572;46.824;-71.222;2023-11-19T07:27:34;5.09;5;2.36
82817;PMS5003;72572;46.824;-71.222;2023-11-19T07:30:00;5.19;4.52;2.05
82817;PMS5003;72572;46.824;-71.222;2023-11-19T07:32:26;6.62;6.62;1.81
82817;PMS5003;72572;46.824;-71.222;2023-11-19T07:34:50;7.1;5.57;4.24
82817;PMS5003;72572;46.824;-71.222;2023-11-19T07:37:15;8.1;4.67;2.14
82817;PMS5003;72572;46.824;-71.222;2023-11-19T07:39:42;9.24;7.19;3.62
82817;PMS5003;72572;46.824;-71.222;2023-11-19T07:42:05;4.9;4.76;2.19
82817;PMS5003;72572;46.824;-71.222;2023-11-19T07:44:32;6.45;5.09;4
82817;PMS5003;72572;46.824;-71.222;2023-11-19T07:46:58;4.9;4.38;1.95
82817;PMS5003;72572;46.824;-71.222;2023-11-19T07:49:24;6.57;6.52;4.52
82817;PMS5003;72572;46.824;-71.222;2023-11-19T07:51:49;9.05;7.24;3.86
82817;PMS5003;72572;46.824;-71.222;2023-11-19T07:54:14;4.81;4.81;3.86
82817;PMS5003;72572;46.824;-71.222;2023-11-19T07:56:40;6.81;5.95;2
82817;PMS5003;72572;46.824;-71.222;2023-11-19T07:59:03;4.9;4.24;4
82817;PMS5003;72572;46.824;-71.222;2023-11-19T08:01:29;5.45;5.45;1.95
82817;PMS5003;72572;46.824;-71.222;2023-11-19T08:03:55;8.38;5.76;2.76
82817;PMS5003;72572;46.824;-71.222;2023-11-19T08:06:19;8.19;6.57;4.14
82817;PMS5003;72572;46.824;-71.222;2023-11-19T08:08:45;8.76;6.52;4
82817;PMS5003;72572;46.824;-71.222;2023-11-19T08:11:10;9.29;8.52;4.57
82817;PMS5003;72572;46.824;-71.222;2023-11-19T08:13:37;7.86;6.24;4
82817;PMS5003;72572;46.824;-71.222;2023-11-19T08:16:01;5.67;5.38;2.48
82817;PMS5003;72572;46.824;-71.222;2023-11-19T08:18:28;10.95;9.36;4.18
82817;PMS5003;72572;46.824;-71.222;2023-11-19T08:20:54;10.1;9.52;4
82817;PMS5003;72572;46.824;-71.222;2023-11-19T08:23:19;7.95;5.52;3.05
82817;PMS5003;72572;46.824;-71.222;2023-11-19T08:25:42;6.57;4.71;3.24
82817;PMS5003;72572;46.824;-71.222;2023-11-19T08:28:10;8;7.29;4.48
82817;PMS5003;72572;46.824;-71.222;2023-11-19T08:30:33;8.67;7.05;2.76
82817;PMS5003;72572;46.824;-71.222;2023-11-19T08:32:59;7.9;7.9;4.1
82817;PMS5003;72572;46.824;-71.222;2023-11-19T08:35:25;10.64;7.05;3.36
82817;PMS5003;72572;46.824;-71.222;2023-11-19T08:37:51;7.67;4.62;1.95
82817;PMS5003;72572;46.824;-71.222;2023-11-19T08:40:15;7.52;6.29;2
82817;PMS5003;72572;46.824;-71.222;2023-11-19T08:42:39;8.43;4.24;2
82817;PMS5003;72572;46.824;-71.222;2023-11-19T08:45:06;11.1;7.52;4
82817;PMS5003;72572;46.824;-71.222;2023-11-19T08:47:30;7.62;7.52;3.81
82817;PMS5003;72572;46.824;-71.222;2023-11-19T08:49:56;7.67;6.05;2.19
82817;PMS5003;72572;46.824;-71.222;2023-11-19T08:52:22;6.68;6.68;4.27
82817;PMS5003;72572;46.824;-71.222;2023-11-19T08:54:48;7.95;6.81;2
82817;PMS5003;72572;46.824;-71.222;2023-11-19T08:57:13;12.81;9.71;5.19
82817;PMS5003;72572;46.824;-71.222;2023-11-19T08:59:37;7.62;7;3.24
82817;PMS5003;72572;46.824;-71.222;2023-11-19T09:13:20;10.14;7.43;4.24
82817;PMS5003;72572;46.824;-71.222;2023-11-19T09:13:34;9.27;7.27;4
82817;PMS5003;72572;46.824;-71.222;2023-11-19T09:13:46;6.91;4.55;1.95
82817;PMS5003;72572;46.824;-71.222;2023-11-19T09:13:57;8.68;6.91;2
82817;PMS5003;72572;46.824;-71.222;2023-11-19T09:14:06;7;6.55;3.36
82817;PMS5003;72572;46.824;-71.222;2023-11-19T09:15:51;9.95;9.18;4.64
82817;PMS5003;72572;46.824;-71.222;2023-11-19T09:18:16;8.24;7.19;4.52
82817;PMS5003;72572;46.824;-71.222;2023-11-19T09:20:41;10.48;8.19;4
82817;PMS5003;72572;46.824;-71.222;2023-11-19T09:23:06;9.48;7.9;4.24
82817;PMS5003;72572;46.824;-71.222;2023-11-19T09:25:32;15.55;9.18;3.91
82817;PMS5003;72572;46.824;-71.222;2023-11-19T09:27:56;10.81;10.14;4.81
82817;PMS5003;72572;46.824;-71.222;2023-11-19T09:30:23;9.43;7.52;3.33
82817;PMS5003;72572;46.824;-71.222;2023-11-19T09:32:46;10.05;9.43;4.81
82817;PMS5003;72572;46.824;-71.222;2023-11-19T09:35:12;7.76;7;4.38
82817;PMS5003;72572;46.824;-71.222;2023-11-19T09:37:37;9.52;8.43;5.1
82817;PMS5003;72572;46.824;-71.222;2023-11-19T09:40:05;10.29;9.24;4.48
82817;PMS5003;72572;46.824;-71.222;2023-11-19T09:42:30;12.41;11.05;7.23
82817;PMS5003;72572;46.824;-71.222;2023-11-19T09:44:54;15.19;11.48;4.48
82817;PMS5003;72572;46.824;-71.222;2023-11-19T09:47:20;12.76;10.52;4.24
82817;PMS5003;72572;46.824;-71.222;2023-11-19T09:49:45;11.1;8.05;4.29
82817;PMS5003;72572;46.824;-71.222;2023-11-19T09:52:11;13.1;10.1;3.43
82817;PMS5003;72572;46.824;-71.222;2023-11-19T09:54:35;11.29;8.81;4.14
82817;PMS5003;72572;46.824;-71.222;2023-11-19T09:57:02;10.05;8.38;4.19
82817;PMS5003;72572;46.824;-71.222;2023-11-19T09:59:25;14.41;10;4.18
82817;PMS5003;72572;46.824;-71.222;2023-11-19T10:01:51;12.33;10.38;3.43
82817;PMS5003;72572;46.824;-71.222;2023-11-19T10:04:16;10.76;9.52;5.19
82817;PMS5003;72572;46.824;-71.222;2023-11-19T10:06:42;11.35;9.15;5.2
82817;PMS5003;72572;46.824;-71.222;2023-11-19T10:09:07;12.52;12.29;6.05
82817;PMS5003;72572;46.824;-71.222;2023-11-19T10:11:34;12.52;10.14;4.33
82817;PMS5003;72572;46.824;-71.222;2023-11-19T10:13:57;14.57;11.81;7
82817;PMS5003;72572;46.824;-71.222;2023-11-19T10:16:28;12.73;11.45;7.55
82817;PMS5003;72572;46.824;-71.222;2023-11-19T10:18:50;12.19;10.95;5.38
82817;PMS5003;72572;46.824;-71.222;2023-11-19T10:21:15;15.67;15.05;7.05
82817;PMS5003;72572;46.824;-71.222;2023-11-19T10:23:48;9.9;9.33;5.76
82817;PMS5003;72572;46.824;-71.222;2023-11-19T10:26:05;11.19;10.71;5.95
82817;PMS5003;72572;46.824;-71.222;2023-11-19T10:28:33;15.14;12.71;7.67
82817;PMS5003;72572;46.824;-71.222;2023-11-19T10:30:56;8.95;8.95;3.81
82817;PMS5003;72572;46.824;-71.222;2023-11-19T10:33:23;14.27;12.86;7.41
82817;PMS5003;72572;46.824;-71.222;2023-11-19T10:35:54;12.1;11.62;7
82817;PMS5003;72572;46.824;-71.222;2023-11-19T10:38:13;11.95;11.33;6.52
82817;PMS5003;72572;46.824;-71.222;2023-11-19T10:40:40;11.24;11.24;5
82817;PMS5003;72572;46.824;-71.222;2023-11-19T10:43:03;10.48;9.33;4.71
82817;PMS5003;72572;46.824;-71.222;2023-11-19T10:45:27;14.33;13.48;6.9
82817;PMS5003;72572;46.824;-71.222;2023-11-19T10:47:54;11;10.81;5.1
82817;PMS5003;72572;46.824;-71.222;2023-11-19T10:50:20;14.18;12.23;7.09
82817;PMS5003;72572;46.824;-71.222;2023-11-19T10:52:44;14.9;11.62;6.48
82817;PMS5003;72572;46.824;-71.222;2023-11-19T10:55:10;14.62;13.67;9.29
82817;PMS5003;72572;46.824;-71.222;2023-11-19T10:57:36;14.38;11.24;7
82817;PMS5003;72572;46.824;-71.222;2023-11-19T11:00:00;14.05;13.11;7.21
82817;PMS5003;72572;46.824;-71.222;2023-11-19T11:02:25;15.57;12.1;6.9
82817;PMS5003;72572;46.824;-71.222;2023-11-19T11:04:49;10.86;9.38;4.19
82817;PMS5003;72572;46.824;-71.222;2023-11-19T11:07:16;20.76;15.14;7.14
82817;PMS5003;72572;46.824;-71.222;2023-11-19T11:09:41;15.48;13.76;7.1
82817;PMS5003;72572;46.824;-71.222;2023-11-19T11:12:08;14.05;12.29;5.67
82817;PMS5003;72572;46.824;-71.222;2023-11-19T11:14:34;11.86;11.1;7
82817;PMS5003;72572;46.824;-71.222;2023-11-19T11:16:58;17.1;15.48;9.14
82817;PMS5003;72572;46.824;-71.222;2023-11-19T11:19:22;15.76;15.38;8.86
82817;PMS5003;72572;46.824;-71.222;2023-11-19T11:21:49;18.71;15.95;9.48
82817;PMS5003;72572;46.824;-71.222;2023-11-19T11:24:24;15.41;14.73;8.82
82817;PMS5003;72572;46.824;-71.222;2023-11-19T11:26:48;16.4;14.55;9.05
82817;PMS5003;72572;46.824;-71.222;2023-11-19T11:29:05;15.14;14.33;9.29
82817;PMS5003;72572;46.824;-71.222;2023-11-19T11:31:31;15.67;14.19;8.14
82817;PMS5003;72572;46.824;-71.222;2023-11-19T11:34:01;16.52;15.38;9.95
82817;PMS5003;72572;46.824;-71.222;2023-11-19T11:36:21;16.14;14.5;8.05
82817;PMS5003;72572;46.824;-71.222;2023-11-19T11:38:47;16.81;15.62;8.71
82817;PMS5003;72572;46.824;-71.222;2023-11-19T11:41:15;17.23;15.64;11.09
82817;PMS5003;72572;46.824;-71.222;2023-11-19T11:43:44;21.52;19;11
82817;PMS5003;72572;46.824;-71.222;2023-11-19T11:46:01;21.95;18.48;9.24
82817;PMS5003;72572;46.824;-71.222;2023-11-19T11:48:29;19.48;18.62;9.29
82817;PMS5003;72572;46.824;-71.222;2023-11-19T11:50:53;18;16.05;9.71
82817;PMS5003;72572;46.824;-71.222;2023-11-19T11:53:25;23.81;21.05;10.62
82817;PMS5003;72572;46.824;-71.222;2023-11-19T11:55:58;20.95;17.9;11.81
82817;PMS5003;72572;46.824;-71.222;2023-11-19T11:58:08;16.95;15.1;9.5
82817;PMS5003;72572;46.824;-71.222;2023-11-19T12:00:37;16.52;14.81;10
82817;PMS5003;72572;46.824;-71.222;2023-11-19T12:02:59;27.84;23.37;9.53
82817;PMS5003;72572;46.824;-71.222;2023-11-19T12:05:24;22.43;19.95;11.19
82817;PMS5003;72572;46.824;-71.222;2023-11-19T12:07:54;19.95;17.38;8.24
82817;PMS5003;72572;46.824;-71.222;2023-11-19T12:10:16;21.19;20.62;12.19
82817;PMS5003;72572;46.824;-71.222;2023-11-19T12:12:41;23.55;19.1;9.95
82817;PMS5003;72572;46.824;-71.222;2023-11-19T12:15:15;20.41;17.14;10.68
82817;PMS5003;72572;46.824;-71.222;2023-11-19T12:17:46;20.24;16.95;8.52
82817;PMS5003;72572;46.824;-71.222;2023-11-19T12:19:56;20.05;17.67;10.43
82817;PMS5003;72572;46.824;-71.222;2023-11-19T12:22:24;22.55;15.45;8.45
82817;PMS5003;72572;46.824;-71.222;2023-11-19T12:24:48;18.57;15.38;9
82817;PMS5003;72572;46.824;-71.222;2023-11-19T12:27:12;17.14;15.29;8
82817;PMS5003;72572;46.824;-71.222;2023-11-19T12:29:41;15.33;12.81;6.71
82817;PMS5003;72572;46.824;-71.222;2023-11-19T12:32:03;25.95;18.57;8.9
82817;PMS5003;72572;46.824;-71.222;2023-11-19T12:34:30;26.6;19.9;9.3
82817;PMS5003;72572;46.824;-71.222;2023-11-19T12:36:54;18.1;17.9;10.57
82817;PMS5003;72572;46.824;-71.222;2023-11-19T12:39:18;19.52;17.24;8.95
82817;PMS5003;72572;46.824;-71.222;2023-11-19T12:41:52;19.48;19.1;10.48
82817;PMS5003;72572;46.824;-71.222;2023-11-19T12:44:09;15.86;14.62;9
82817;PMS5003;72572;46.824;-71.222;2023-11-19T12:46:35;17.95;16.05;7.57
82817;PMS5003;72572;46.824;-71.222;2023-11-19T12:49:00;24.38;20.76;10.43
82817;PMS5003;72572;46.824;-71.222;2023-11-19T12:51:30;23.38;18.81;9.05
82817;PMS5003;72572;46.824;-71.222;2023-11-19T12:53:51;22;19.24;8.86
82817;PMS5003;72572;46.824;-71.222;2023-11-19T12:56:17;29.1;21.2;10.5
82817;PMS5003;72572;46.824;-71.222;2023-11-19T12:58:41;23.85;18.7;10.25
82817;PMS5003;72572;46.824;-71.222;2023-11-19T13:01:06;23.62;22.52;10.29
82817;PMS5003;72572;46.824;-71.222;2023-11-19T13:03:41;22.45;18.55;10.27
82817;PMS5003;72572;46.824;-71.222;2023-11-19T13:06:08;24.14;21.05;11.68
82817;PMS5003;72572;46.824;-71.222;2023-11-19T13:08:39;24.05;20.19;11.57
82817;PMS5003;72572;46.824;-71.222;2023-11-19T13:10:56;28.19;24.14;11.67
82817;PMS5003;72572;46.824;-71.222;2023-11-19T13:13:22;31.75;25.05;12.3
82817;PMS5003;72572;46.824;-71.222;2023-11-19T13:15:46;33.45;25.45;12.8
82817;PMS5003;72572;46.824;-71.222;2023-11-19T13:18:16;24.05;23.75;12
82817;PMS5003;72572;46.824;-71.222;2023-11-19T13:20:39;26.82;24.14;10.41
82817;PMS5003;72572;46.824;-71.222;2023-11-19T13:23:03;24.75;20.7;10
82817;PMS5003;72572;46.824;-71.222;2023-11-19T13:25:29;30.35;25.25;13.4
82817;PMS5003;72572;46.824;-71.222;2023-11-19T13:27:55;33.3;25.8;11.85
82817;PMS5003;72572;46.824;-71.222;2023-11-19T13:30:17;31.15;24;12.1
82817;PMS5003;72572;46.824;-71.222;2023-11-19T13:32:44;25.24;23.24;12.05
82817;PMS5003;72572;46.824;-71.222;2023-11-19T13:35:09;22.95;21.76;11.52
82817;PMS5003;72572;46.824;-71.222;2023-11-19T13:37:37;27.24;21.81;9.86
82817;PMS5003;72572;46.824;-71.222;2023-11-19T13:40:00;27.62;25.24;11.9
82817;PMS5003;72572;46.824;-71.222;2023-11-19T13:42:26;27.24;23.43;11.1
82817;PMS5003;72572;46.824;-71.222;2023-11-19T13:44:52;29.5;24.9;12.95
82817;PMS5003;72572;46.824;-71.222;2023-11-19T13:47:17;35.6;25.3;11.85
82817;PMS5003;72572;46.824;-71.222;2023-11-19T13:49:43;31.2;26.4;13.15
82817;PMS5003;72572;46.824;-71.222;2023-11-19T13:52:06;25.62;24.05;13.67
82817;PMS5003;72572;46.824;-71.222;2023-11-19T13:54:32;31.24;22.9;11.52
82817;PMS5003;72572;46.824;-71.222;2023-11-19T13:56:58;26.62;22.19;12.67